Time;durP1;ratioP1;P1;durP2;ratioP2;P2;SDS_P1;SDS_P2;PMS_P1;PMS_P2;Temp;Humidity;BMP_temperature;BMP_pressure;BME280_temperature;BME280_humidity;BME280_pressure;Samples;Min_cycle;Max_cycle;Signal;HPM_P1;HPM_P2
2023/07/17 00:02:32;;;;;;;2.70;2.50;;;;;;;20.40;72.65;100500.59;103698;280;38720;-73
2023/07/17 00:05:07;;;;;;;2.60;2.30;;;;;;;20.38;72.85;100502.89;103690;280;39459;-73
2023/07/17 00:07:42;;;;;;;3.40;2.50;;;;;;;20.33;72.90;100504.86;103683;280;39447;-74
2023/07/17 00:10:16;;;;;;;3.50;2.40;;;;;;;20.30;73.20;100505.73;103697;280;39428;-75
2023/07/17 00:12:51;;;;;;;8.40;2.70;;;;;;;20.29;73.29;100507.98;103629;280;38260;-74
2023/07/17 00:15:25;;;;;;;4.10;2.40;;;;;;;20.28;73.26;100504.35;103654;280;39044;-74
2023/07/17 00:17:58;;;;;;;4.40;2.50;;;;;;;20.25;73.36;100500.10;103652;280;38742;-74
2023/07/17 00:20:32;;;;;;;5.10;3.30;;;;;;;20.24;73.45;100504.48;103664;280;39475;-74
2023/07/17 00:23:06;;;;;;;3.80;2.70;;;;;;;20.22;73.34;100508.16;103631;280;38284;-74
2023/07/17 00:25:41;;;;;;;3.40;3.00;;;;;;;20.21;73.48;100512.45;103374;282;177112;-73
2023/07/17 00:28:15;;;;;;;3.50;2.80;;;;;;;20.20;73.64;100508.86;103655;280;38369;-75
2023/07/17 00:30:49;;;;;;;4.10;3.00;;;;;;;20.18;73.55;100508.84;103666;280;38713;-75
2023/07/17 00:33:24;;;;;;;7.30;3.20;;;;;;;20.16;73.42;100510.55;103644;280;38411;-75
2023/07/17 00:35:58;;;;;;;4.50;3.00;;;;;;;20.15;73.52;100510.65;103491;280;38637;-73
2023/07/17 00:38:32;;;;;;;3.10;2.90;;;;;;;20.13;73.79;100512.73;103631;280;38270;-73
2023/07/17 00:41:06;;;;;;;3.80;3.10;;;;;;;20.08;73.68;100511.14;103671;279;39625;-73
2023/07/17 00:43:41;;;;;;;3.70;2.80;;;;;;;20.03;73.93;100502.73;103672;280;39458;-74
2023/07/17 00:46:15;;;;;;;3.40;3.00;;;;;;;19.98;74.15;100504.33;103688;280;39434;-75
2023/07/17 00:48:50;;;;;;;4.80;3.10;;;;;;;19.95;74.42;100510.19;103649;280;39325;-75
2023/07/17 00:51:25;;;;;;;3.80;2.70;;;;;;;19.93;74.43;100510.39;103607;280;189428;-74
2023/07/17 00:53:59;;;;;;;4.80;3.10;;;;;;;19.91;74.75;100506.91;103667;280;39405;-75
2023/07/17 00:56:34;;;;;;;3.70;3.10;;;;;;;19.92;74.74;100501.77;103659;280;38247;-74
2023/07/17 00:59:09;;;;;;;4.30;3.60;;;;;;;19.93;74.87;100498.86;103653;280;38325;-74
2023/07/17 01:01:43;;;;;;;4.00;3.10;;;;;;;19.93;74.87;100494.05;103578;280;39600;-76
2023/07/17 01:04:17;;;;;;;4.10;3.20;;;;;;;19.95;75.15;100494.28;103663;280;38366;-75
2023/07/17 01:06:51;;;;;;;3.90;2.90;;;;;;;19.97;75.10;100497.14;103681;304;38261;-75
2023/07/17 01:09:25;;;;;;;4.40;3.30;;;;;;;19.98;75.28;100494.02;103550;280;39425;-74
2023/07/17 01:12:00;;;;;;;3.10;2.80;;;;;;;19.99;75.23;100490.77;103702;280;38942;-74
2023/07/17 01:14:37;;;;;;;5.50;3.30;;;;;;;20.00;75.15;100491.97;103651;280;38293;-74
2023/07/17 01:17:11;;;;;;;3.80;3.00;;;;;;;19.97;75.17;100492.33;103661;280;39774;-75
2023/07/17 01:19:45;;;;;;;3.10;2.80;;;;;;;19.95;75.19;100489.66;103670;280;38547;-74
2023/07/17 01:22:23;;;;;;;3.60;3.10;;;;;;;19.95;75.22;100487.58;103500;279;40407;-76
2023/07/17 01:24:57;;;;;;;3.50;3.20;;;;;;;19.94;75.44;100484.79;103688;280;38240;-73
2023/07/17 01:27:32;;;;;;;3.70;3.30;;;;;;;19.95;75.62;100484.39;103659;280;38439;-74
2023/07/17 01:30:08;;;;;;;4.20;3.20;;;;;;;19.94;75.58;100483.91;103682;280;39180;-74
2023/07/17 01:32:43;;;;;;;3.80;3.20;;;;;;;19.93;75.82;100486.23;103692;280;38267;-74
2023/07/17 01:35:18;;;;;;;4.00;3.30;;;;;;;19.94;75.49;100484.98;103644;280;38545;-75
2023/07/17 01:37:52;;;;;;;5.00;3.80;;;;;;;19.91;75.50;100486.06;103666;280;38718;-74
2023/07/17 01:40:26;;;;;;;3.30;3.00;;;;;;;19.88;75.45;100489.12;103690;280;38757;-75
2023/07/17 01:43:00;;;;;;;3.40;3.00;;;;;;;19.84;75.61;100491.85;103646;280;39411;-75
2023/07/17 01:45:36;;;;;;;3.90;2.80;;;;;;;19.79;75.57;100495.84;103677;280;38712;-74
2023/07/17 01:48:11;;;;;;;5.10;3.10;;;;;;;19.73;75.69;100493.06;103539;280;172045;-74
2023/07/17 01:50:45;;;;;;;3.80;3.10;;;;;;;19.68;75.77;100503.17;103690;280;38516;-73
2023/07/17 01:53:24;;;;;;;3.80;2.90;;;;;;;19.64;75.97;100505.65;103652;279;38429;-73
2023/07/17 01:55:56;;;;;;;;;;;;;;;19.57;76.18;100506.23;103737;279;38266;-76
2023/07/17 01:58:30;;;;;;;4.10;3.70;;;;;;;19.51;76.66;100509.02;103740;279;38470;-76
2023/07/17 02:01:04;;;;;;;4.40;3.70;;;;;;;19.50;76.59;100506.72;103731;279;38854;-75
2023/07/17 02:03:38;;;;;;;4.90;3.60;;;;;;;19.50;76.90;100512.63;103712;279;38634;-74
2023/07/17 02:06:12;;;;;;;3.70;3.40;;;;;;;19.47;76.99;100518.33;103688;279;38257;-74
2023/07/17 02:08:46;;;;;;;4.60;3.50;;;;;;;19.46;77.01;100519.80;103722;279;39354;-73
2023/07/17 02:11:20;;;;;;;4.20;3.80;;;;;;;19.43;77.07;100517.70;103757;279;38238;-73
2023/07/17 02:13:54;;;;;;;4.40;3.50;;;;;;;19.43;77.22;100518.59;103647;279;38356;-73
2023/07/17 02:16:28;;;;;;;4.40;3.60;;;;;;;19.44;77.17;100518.17;103687;279;38235;-74
2023/07/17 02:19:01;;;;;;;5.40;3.80;;;;;;;19.43;77.15;100519.90;103716;279;38794;-75
2023/07/17 02:21:36;;;;;;;5.20;4.10;;;;;;;19.41;77.13;100521.41;103693;279;39147;-74
2023/07/17 02:24:12;;;;;;;6.60;4.50;;;;;;;19.38;77.14;100520.38;103730;279;38237;-75
2023/07/17 02:26:46;;;;;;;5.30;3.40;;;;;;;19.37;77.51;100518.52;103678;279;38793;-75
2023/07/17 02:29:20;;;;;;;4.50;4.10;;;;;;;19.35;77.56;100520.58;103719;279;38235;-73
2023/07/17 02:31:55;;;;;;;4.30;3.90;;;;;;;19.33;77.85;100521.96;103710;279;38351;-73
2023/07/17 02:34:29;;;;;;;4.00;3.70;;;;;;;19.31;77.75;100530.80;103785;279;39929;-74
2023/07/17 02:37:03;;;;;;;3.90;3.50;;;;;;;19.29;77.66;100532.88;103675;279;38448;-75
2023/07/17 02:39:37;;;;;;;4.40;3.70;;;;;;;19.28;77.91;100531.73;103711;279;38365;-74
2023/07/17 02:42:11;;;;;;;4.20;3.80;;;;;;;19.26;78.16;100528.67;103702;279;38798;-75
2023/07/17 02:44:46;;;;;;;5.00;3.10;;;;;;;19.24;78.20;100532.52;103704;268;38326;-74
2023/07/17 02:47:20;;;;;;;3.90;3.50;;;;;;;19.22;78.29;100534.46;103670;279;39399;-74
2023/07/17 02:49:54;;;;;;;4.40;4.00;;;;;;;19.20;78.39;100536.17;103580;279;174836;-74
2023/07/17 02:52:34;;;;;;;4.20;3.50;;;;;;;19.19;78.27;100538.56;103667;279;38234;-74
2023/07/17 02:55:10;;;;;;;5.50;3.60;;;;;;;19.20;78.68;100539.91;103658;279;38619;-76
2023/07/17 02:57:44;;;;;;;4.20;3.90;;;;;;;19.20;78.81;100543.23;103685;279;38731;-75
2023/07/17 03:00:20;;;;;;;3.90;3.50;;;;;;;19.21;78.97;100539.64;103639;279;39474;-73
2023/07/17 03:02:54;;;;;;;4.10;3.60;;;;;;;19.26;79.32;100542.80;103656;279;38833;-74
2023/07/17 03:05:28;;;;;;;3.70;3.30;;;;;;;19.30;79.26;100541.79;103699;279;38264;-75
2023/07/17 03:08:02;;;;;;;4.20;3.50;;;;;;;19.37;79.42;100542.55;103648;279;39560;-75
2023/07/17 03:10:37;;;;;;;4.20;3.80;;;;;;;19.50;79.45;100544.84;103665;279;38694;-75
2023/07/17 03:13:11;;;;;;;3.90;3.60;;;;;;;19.59;79.49;100542.26;103678;279;38362;-74
2023/07/17 03:15:45;;;;;;;4.20;3.70;;;;;;;19.66;79.32;100545.96;103698;279;38459;-75
2023/07/17 03:18:19;;;;;;;4.40;3.40;;;;;;;19.73;79.28;100547.61;103659;279;38306;-75
2023/07/17 03:20:53;;;;;;;5.40;3.80;;;;;;;19.78;79.35;100554.86;103664;279;38249;-75
2023/07/17 03:23:27;;;;;;;3.60;3.30;;;;;;;19.84;79.40;100557.22;103661;279;38271;-74
2023/07/17 03:26:01;;;;;;;4.00;3.30;;;;;;;19.92;79.70;100560.70;103663;280;40057;-73
2023/07/17 03:28:37;;;;;;;4.20;3.70;;;;;;;20.03;79.72;100568.59;103696;279;38379;-75
2023/07/17 03:31:11;;;;;;;4.30;3.90;;;;;;;20.14;79.50;100563.16;103663;279;38230;-73
2023/07/17 03:33:46;;;;;;;5.00;3.40;;;;;;;20.22;79.30;100559.52;103665;279;39050;-74
2023/07/17 03:36:20;;;;;;;4.30;3.90;;;;;;;20.26;79.07;100554.59;103677;279;38370;-75
2023/07/17 03:38:54;;;;;;;4.30;3.70;;;;;;;20.31;78.90;100552.14;103638;279;38290;-74
2023/07/17 03:41:29;;;;;;;4.10;3.70;;;;;;;20.36;78.71;100555.82;103684;268;38919;-75
2023/07/17 03:44:03;;;;;;;4.90;4.20;;;;;;;20.40;78.83;100558.57;103670;279;38621;-75
2023/07/17 03:46:37;;;;;;;5.90;3.80;;;;;;;20.43;78.64;100558.60;103680;279;38256;-74
2023/07/17 03:49:11;;;;;;;4.10;3.60;;;;;;;20.53;78.62;100557.92;103688;279;39506;-75
2023/07/17 03:51:45;;;;;;;4.50;4.10;;;;;;;20.95;79.51;100555.48;103663;279;38740;-75
2023/07/17 03:54:18;;;;;;;4.10;3.70;;;;;;;21.13;78.04;100560.48;103652;279;38390;-75
2023/07/17 03:56:53;;;;;;;4.40;4.00;;;;;;;21.16;77.45;100564.52;103677;279;38278;-74
2023/07/17 03:59:27;;;;;;;4.40;4.00;;;;;;;21.17;76.89;100557.38;103687;268;38224;-74
2023/07/17 04:02:02;;;;;;;4.80;4.10;;;;;;;21.18;76.69;100554.25;103688;279;38233;-74
2023/07/17 04:04:37;;;;;;;4.50;3.80;;;;;;;21.19;76.32;100554.02;103695;279;38288;-74
2023/07/17 04:07:11;;;;;;;3.80;3.30;;;;;;;21.18;75.96;100560.30;103652;280;39448;-74
2023/07/17 04:09:45;;;;;;;3.90;3.60;;;;;;;21.18;75.82;100560.27;103688;279;38428;-75
2023/07/17 04:12:19;;;;;;;4.80;3.50;;;;;;;21.21;75.79;100560.23;103665;279;38356;-75
2023/07/17 04:14:53;;;;;;;4.70;3.50;;;;;;;21.29;75.74;100563.16;103690;279;40013;-75
2023/07/17 04:17:28;;;;;;;5.20;3.80;;;;;;;21.35;75.82;100563.35;103679;279;39765;-74
2023/07/17 04:20:02;;;;;;;5.30;4.10;;;;;;;21.40;75.38;100564.74;103677;279;39442;-75
2023/07/17 04:22:36;;;;;;;5.30;3.80;;;;;;;21.48;75.67;100563.10;103714;279;39402;-75
2023/07/17 04:25:12;;;;;;;4.90;3.90;;;;;;;21.54;75.34;100562.55;103711;279;38535;-76
2023/07/17 04:27:46;;;;;;;5.20;4.10;;;;;;;21.60;75.37;100562.41;103708;279;39410;-76
2023/07/17 04:30:20;;;;;;;5.80;4.40;;;;;;;21.66;75.32;100563.55;103754;279;38790;-75
2023/07/17 04:32:56;;;;;;;5.80;4.60;;;;;;;21.70;74.78;100563.91;103673;279;38639;-74
2023/07/17 04:35:29;;;;;;;8.40;4.40;;;;;;;21.75;74.12;100566.59;103669;279;38238;-74
2023/07/17 04:38:04;;;;;;;4.40;4.00;;;;;;;21.79;74.12;100572.09;103680;279;38512;-74
2023/07/17 04:40:39;;;;;;;3.90;3.50;;;;;;;21.85;73.74;100571.71;103668;279;38427;-74
2023/07/17 04:43:13;;;;;;;5.50;3.50;;;;;;;21.93;73.38;100570.07;103699;268;38075;-76
2023/07/17 04:45:47;;;;;;;4.30;3.50;;;;;;;22.01;73.41;100570.57;103698;279;38446;-75
2023/07/17 04:48:22;;;;;;;4.50;3.80;;;;;;;22.17;73.56;100572.87;103549;279;176439;-73
2023/07/17 04:50:56;;;;;;;4.20;3.70;;;;;;;22.32;73.08;100573.89;103710;279;38236;-74
2023/07/17 04:53:30;;;;;;;5.80;4.00;;;;;;;22.47;72.50;100578.51;103693;279;38299;-74
2023/07/17 04:56:06;;;;;;;4.90;3.60;;;;;;;22.59;72.03;100584.80;103726;279;39078;-75
2023/07/17 04:58:40;;;;;;;5.90;3.70;;;;;;;22.66;71.57;100578.85;103563;279;174294;-74
2023/07/17 05:01:14;;;;;;;6.40;4.00;;;;;;;22.72;71.43;100584.61;103716;279;38537;-75
2023/07/17 05:03:48;;;;;;;4.00;3.60;;;;;;;22.78;71.08;100589.41;103729;268;39415;-74
2023/07/17 05:06:23;;;;;;;5.70;3.70;;;;;;;22.80;70.52;100585.10;103713;279;39417;-74
2023/07/17 05:08:57;;;;;;;4.60;3.80;;;;;;;22.80;70.47;100588.11;103668;279;39057;-75
2023/07/17 05:11:32;;;;;;;6.00;4.00;;;;;;;22.88;70.47;100590.47;103692;279;38345;-76
2023/07/17 05:14:06;;;;;;;6.10;4.20;;;;;;;23.07;70.47;100591.39;103693;279;39127;-75
2023/07/17 05:16:41;;;;;;;6.30;3.80;;;;;;;23.64;71.19;100598.84;103723;279;38243;-74
2023/07/17 05:19:15;;;;;;;4.30;3.90;;;;;;;24.46;70.80;100607.40;103358;279;487396;-74
2023/07/17 05:21:49;;;;;;;7.40;4.30;;;;;;;25.23;66.88;100604.49;103649;279;38349;-75
2023/07/17 05:24:25;;;;;;;5.20;4.00;;;;;;;25.39;64.28;100604.90;103692;279;38664;-74
2023/07/17 05:26:59;;;;;;;4.70;4.00;;;;;;;25.46;63.29;100610.67;103719;279;38512;-74
2023/07/17 05:29:34;;;;;;;4.50;3.60;;;;;;;25.53;62.35;100614.59;103680;279;38414;-73
2023/07/17 05:32:10;;;;;;;6.10;3.70;;;;;;;25.44;61.49;100616.66;103771;279;38230;-75
2023/07/17 05:34:44;;;;;;;3.90;3.50;;;;;;;25.33;61.08;100627.23;103743;279;39642;-74
2023/07/17 05:37:19;;;;;;;7.80;4.70;;;;;;;25.21;60.76;100633.61;103717;279;38607;-74
2023/07/17 05:39:52;;;;;;;5.00;3.70;;;;;;;25.04;60.63;100643.38;103754;279;38369;-74
2023/07/17 05:42:28;;;;;;;5.20;4.30;;;;;;;24.87;60.98;100648.20;103728;279;38714;-75
2023/07/17 05:45:02;;;;;;;5.80;3.70;;;;;;;24.76;61.40;100642.66;103750;279;38751;-74
2023/07/17 05:47:37;;;;;;;4.40;3.90;;;;;;;24.74;61.90;100636.98;103733;279;38238;-78
2023/07/17 05:50:14;;;;;;;5.80;3.70;;;;;;;24.81;62.35;100619.09;103734;279;38273;-74
2023/07/17 05:52:49;;;;;;;4.30;4.00;;;;;;;24.82;61.54;100611.08;103782;279;39456;-75
2023/07/17 05:55:25;;;;;;;5.60;4.40;;;;;;;24.79;61.66;100613.49;103722;279;39375;-74
2023/07/17 05:58:01;;;;;;;4.60;4.00;;;;;;;24.73;61.22;100609.96;103719;268;39373;-75
2023/07/17 06:00:39;;;;;;;8.70;4.60;;;;;;;24.65;61.32;100607.09;103736;280;38209;-74
2023/07/17 06:03:19;;;;;;;4.70;4.20;;;;;;;24.60;62.07;100609.84;103580;280;40278;-75
2023/07/17 06:05:56;;;;;;;7.70;4.80;;;;;;;24.61;61.95;100612.25;103723;280;39527;-75
2023/07/17 06:08:37;;;;;;;7.10;4.30;;;;;;;24.65;62.10;100606.94;103706;280;38393;-74
2023/07/17 06:11:29;;;;;;;5.50;4.60;;;;;;;24.76;62.10;100602.69;103675;280;39256;-72
2023/07/17 06:14:04;;;;;;;5.00;4.20;;;;;;;24.88;62.25;100602.58;103695;280;39428;-74
2023/07/17 06:16:40;;;;;;;5.80;4.50;;;;;;;25.39;63.09;100598.60;103697;280;38290;-74
2023/07/17 06:19:14;;;;;;;6.60;4.60;;;;;;;26.34;62.43;100595.16;103523;280;40039;-75
2023/07/17 06:21:49;;;;;;;5.00;3.90;;;;;;;27.58;59.95;100590.52;103625;280;38898;-73
2023/07/17 06:24:23;;;;;;;6.00;3.70;;;;;;;28.69;56.06;100592.13;103699;280;38422;-75
2023/07/17 06:27:00;;;;;;;4.80;3.50;;;;;;;29.47;53.16;100581.46;103684;280;39630;-74
2023/07/17 06:29:41;;;;;;;5.40;3.80;;;;;;;29.92;51.11;100574.05;103641;280;38380;-74
2023/07/17 06:32:24;;;;;;;5.10;3.50;;;;;;;30.49;49.31;100580.13;103705;280;38254;-72
2023/07/17 06:35:02;;;;;;;6.60;3.70;;;;;;;30.81;47.28;100575.52;103081;280;886799;-75
2023/07/17 06:37:37;;;;;;;5.40;3.30;;;;;;;30.71;46.91;100572.06;103692;279;38522;-73
2023/07/17 06:40:24;;;;;;;5.40;3.50;;;;;;;30.37;46.31;100577.63;103662;280;38235;-73
2023/07/17 06:43:27;;;;;;;5.80;3.40;;;;;;;29.79;46.86;100576.70;103598;280;38792;-75
2023/07/17 06:46:02;;;;;;;4.10;3.50;;;;;;;29.42;47.72;100574.02;103625;280;38283;-73
2023/07/17 06:48:37;;;;;;;3.70;3.40;;;;;;;29.13;48.38;100571.21;103666;268;38227;-72
2023/07/17 06:51:12;;;;;;;3.60;3.30;;;;;;;28.93;48.61;100572.61;103559;280;40393;-77
2023/07/17 06:53:47;;;;;;;5.50;3.30;;;;;;;28.81;48.66;100577.77;103666;280;39601;-77
2023/07/17 06:56:21;;;;;;;4.70;3.30;;;;;;;28.79;48.94;100580.03;103736;280;38405;-78
2023/07/17 06:58:55;;;;;;;5.20;3.70;;;;;;;28.84;48.64;100586.60;103717;280;39435;-75
2023/07/17 07:01:30;;;;;;;5.70;3.70;;;;;;;28.85;48.83;100589.32;103593;280;39155;-78
2023/07/17 07:04:05;;;;;;;5.20;4.00;;;;;;;29.05;49.25;100596.30;103737;280;39896;-78
2023/07/17 07:06:39;;;;;;;7.70;4.00;;;;;;;29.26;48.37;100598.16;103683;280;39408;-77
2023/07/17 07:09:14;;;;;;;5.50;3.90;;;;;;;29.39;48.36;100598.13;103693;280;39442;-77
2023/07/17 07:11:48;;;;;;;6.60;3.60;;;;;;;29.42;47.86;100599.98;103678;280;39660;-76
2023/07/17 07:14:22;;;;;;;4.30;3.30;;;;;;;29.37;47.71;100601.77;103673;280;38370;-76
2023/07/17 07:16:57;;;;;;;4.30;3.20;;;;;;;29.28;47.60;100609.46;103693;280;38422;-79
2023/07/17 07:19:33;;;;;;;6.30;3.30;;;;;;;29.18;47.63;100608.45;103690;280;38389;-76
2023/07/17 07:22:10;;;;;;;4.80;3.40;;;;;;;29.04;47.70;100605.41;103688;280;38500;-79
2023/07/17 07:24:46;;;;;;;4.20;3.20;;;;;;;28.93;48.25;100610.87;103619;280;174044;-77
2023/07/17 07:27:21;;;;;;;4.00;3.10;;;;;;;28.81;48.79;100608.11;103656;280;38497;-76
2023/07/17 07:29:54;;;;;;;4.60;3.10;;;;;;;28.71;48.78;100609.54;103557;281;38239;-77
2023/07/17 07:32:29;;;;;;;4.80;4.00;;;;;;;28.62;48.77;100607.53;103637;280;38490;-78
2023/07/17 07:35:03;;;;;;;3.70;3.30;;;;;;;28.52;48.58;100611.63;103698;280;38426;-77
2023/07/17 07:37:37;;;;;;;6.10;3.40;;;;;;;28.45;49.28;100614.80;103513;280;38276;-78
2023/07/17 07:40:13;;;;;;;6.40;3.70;;;;;;;28.37;49.10;100611.83;103704;280;38231;-77
2023/07/17 07:42:47;;;;;;;6.40;3.80;;;;;;;28.24;49.10;100613.11;103682;280;38757;-76
2023/07/17 07:45:22;;;;;;;5.10;3.30;;;;;;;28.13;49.55;100611.39;103684;280;38269;-78
2023/07/17 07:47:57;;;;;;;3.90;3.30;;;;;;;28.07;50.31;100617.23;103667;280;40181;-77
2023/07/17 07:50:31;;;;;;;4.10;3.50;;;;;;;28.08;50.51;100612.52;103498;281;38691;-73
2023/07/17 07:53:05;;;;;;;3.70;3.40;;;;;;;28.12;50.49;100612.59;103672;280;38487;-73
2023/07/17 07:55:39;;;;;;;5.00;3.40;;;;;;;28.07;50.25;100609.71;103653;280;39801;-74
2023/07/17 07:58:13;;;;;;;5.30;3.60;;;;;;;28.05;50.39;100607.31;103686;280;39428;-73
2023/07/17 08:00:47;;;;;;;7.20;3.70;;;;;;;28.21;50.87;100612.53;103652;280;39973;-72
2023/07/17 08:03:21;;;;;;;4.00;3.50;;;;;;;28.56;50.83;100615.55;103681;280;38332;-73
2023/07/17 08:05:55;;;;;;;4.80;3.20;;;;;;;28.94;49.44;100611.37;103693;280;38222;-72
2023/07/17 08:08:29;;;;;;;8.30;3.30;;;;;;;29.13;48.95;100611.16;103655;280;38417;-72
2023/07/17 08:11:02;;;;;;;10.00;3.20;;;;;;;29.20;48.48;100608.55;103671;280;38720;-73
2023/07/17 08:13:37;;;;;;;4.30;3.80;;;;;;;29.23;47.91;100606.92;103652;280;38396;-73
2023/07/17 08:16:11;;;;;;;5.90;3.20;;;;;;;29.24;47.75;100598.77;103655;280;39014;-72
2023/07/17 08:18:46;;;;;;;6.70;3.60;;;;;;;29.39;48.13;100601.91;103670;280;38730;-71
2023/07/17 08:21:23;;;;;;;4.10;3.30;;;;;;;29.73;47.53;100600.23;103659;280;39914;-73
2023/07/17 08:23:58;;;;;;;5.50;3.00;;;;;;;29.97;47.30;100599.00;103650;280;38324;-73
2023/07/17 08:26:32;;;;;;;6.50;3.40;;;;;;;30.22;46.99;100605.33;103646;280;38839;-72
2023/07/17 08:29:06;;;;;;;7.90;3.60;;;;;;;30.96;46.69;100600.48;103656;280;38557;-74
2023/07/17 08:31:40;;;;;;;3.50;3.10;;;;;;;31.42;44.54;100601.94;103618;280;38816;-73
2023/07/17 08:34:16;;;;;;;8.00;3.80;;;;;;;31.32;43.47;100603.14;103729;280;38281;-73
2023/07/17 08:36:52;;;;;;;5.40;3.40;;;;;;;30.92;42.92;100602.02;103673;280;39384;-74
2023/07/17 08:39:28;;;;;;;5.40;3.00;;;;;;;30.69;43.62;100599.66;103715;276;38343;-73
2023/07/17 08:42:06;;;;;;;8.50;3.30;;;;;;;31.02;43.20;100600.05;103703;280;38473;-74
2023/07/17 08:44:41;;;;;;;7.10;2.90;;;;;;;31.55;41.91;100603.02;103747;280;39441;-73
2023/07/17 08:47:16;;;;;;;6.80;3.00;;;;;;;32.35;40.97;100595.09;103661;280;38269;-72
2023/07/17 08:49:54;;;;;;;3.30;2.50;;;;;;;33.37;39.20;100581.05;103651;280;38532;-72
2023/07/17 08:52:29;;;;;;;5.90;2.60;;;;;;;34.28;36.97;100574.29;103685;280;38393;-74
2023/07/17 08:55:06;;;;;;;3.40;2.70;;;;;;;35.09;35.76;100567.41;103705;280;38311;-73
2023/07/17 08:57:42;;;;;;;5.20;2.70;;;;;;;35.93;34.05;100559.46;103592;280;171270;-74
2023/07/17 09:00:19;;;;;;;6.40;3.10;;;;;;;36.57;32.50;100554.74;103679;280;38188;-73
2023/07/17 09:02:55;;;;;;;5.60;3.40;;;;;;;37.16;31.96;100556.73;103707;280;38428;-72
2023/07/17 09:05:32;;;;;;;5.20;3.00;;;;;;;37.85;30.65;100558.66;103728;279;38613;-73
2023/07/17 09:08:08;;;;;;;3.50;2.70;;;;;;;38.34;29.51;100556.58;103680;280;38718;-73
2023/07/17 09:10:44;;;;;;;4.20;2.50;;;;;;;38.86;28.93;100552.39;103760;279;38492;-73
2023/07/17 09:13:19;;;;;;;4.10;2.60;;;;;;;39.29;27.85;100553.98;103680;280;39615;-72
2023/07/17 09:15:54;;;;;;;4.30;2.70;;;;;;;39.54;26.99;100550.54;103728;280;39918;-72
2023/07/17 09:18:32;;;;;;;4.40;2.00;;;;;;;39.64;26.36;100546.30;103708;279;38502;-71
2023/07/17 09:21:08;;;;;;;4.00;2.60;;;;;;;39.64;25.57;100545.16;103617;281;38272;-73
2023/07/17 09:23:47;;;;;;;2.60;2.20;;;;;;;39.65;25.23;100543.75;103729;280;38273;-73
2023/07/17 09:26:30;;;;;;;3.70;2.60;;;;;;;39.59;25.25;100543.17;103659;280;38793;-74
2023/07/17 09:29:04;;;;;;;5.00;2.70;;;;;;;39.44;25.47;100543.43;103522;281;40627;-74
2023/07/17 09:31:38;;;;;;;3.90;2.70;;;;;;;39.26;25.41;100543.10;103670;280;38948;-74
2023/07/17 09:34:16;;;;;;;5.60;2.70;;;;;;;39.02;25.93;100540.92;103681;280;39429;-75
2023/07/17 09:36:52;;;;;;;3.50;2.70;;;;;;;38.80;26.45;100546.14;103663;280;39454;-73
2023/07/17 09:39:26;;;;;;;3.30;2.60;;;;;;;38.54;26.94;100543.56;103666;280;38332;-73
2023/07/17 09:42:01;;;;;;;4.50;2.80;;;;;;;38.30;27.64;100544.20;103650;280;38394;-74
2023/07/17 09:44:37;;;;;;;6.30;2.60;;;;;;;38.10;28.03;100547.13;103563;280;173793;-72
2023/07/17 09:47:11;;;;;;;4.30;3.00;;;;;;;37.83;27.45;100543.64;103685;280;38722;-77
2023/07/17 09:49:46;;;;;;;5.10;3.30;;;;;;;37.53;28.28;100533.48;103687;279;39313;-73
2023/07/17 09:52:20;;;;;;;4.20;2.80;;;;;;;37.34;28.53;100533.65;103639;280;38826;-73
2023/07/17 09:54:55;;;;;;;3.30;3.00;;;;;;;37.10;28.45;100529.95;103679;279;38511;-73
2023/07/17 09:57:33;;;;;;;3.30;2.80;;;;;;;36.86;29.25;100526.72;103633;279;38398;-73
2023/07/17 10:00:11;;;;;;;;;;;;;;;36.74;29.49;100523.69;103666;280;39688;-73
2023/07/17 10:02:52;;;;;;;6.30;2.90;;;;;;;36.53;29.60;100526.05;102930;280;886347;-71
2023/07/17 10:05:26;;;;;;;6.70;2.70;;;;;;;36.26;29.59;100524.02;103656;280;41262;-73
2023/07/17 10:08:00;;;;;;;3.20;2.40;;;;;;;36.16;29.66;100518.77;103690;280;38290;-73
2023/07/17 10:10:34;;;;;;;3.70;2.70;;;;;;;36.21;30.41;100519.33;103735;280;38609;-73
2023/07/17 10:13:09;;;;;;;4.80;2.90;;;;;;;36.32;30.45;100514.83;103696;280;39690;-74
2023/07/17 10:15:43;;;;;;;4.00;3.00;;;;;;;36.36;30.46;100509.98;103648;280;38246;-74
2023/07/17 10:18:17;;;;;;;2.80;2.50;;;;;;;36.36;29.76;100505.15;103701;280;39446;-73
2023/07/17 10:21:00;;;;;;;4.30;2.50;;;;;;;36.31;30.17;100502.60;103678;280;38297;-75
2023/07/17 10:23:33;;;;;;;3.80;2.60;;;;;;;36.32;30.24;100500.57;103680;280;38733;-75
2023/07/17 10:26:14;;;;;;;3.60;2.80;;;;;;;36.27;30.27;100492.98;103704;268;38474;-75
2023/07/17 10:28:53;;;;;;;3.50;2.70;;;;;;;36.26;30.47;100497.56;103681;280;38248;-75
2023/07/17 10:31:28;;;;;;;3.30;2.80;;;;;;;36.29;30.41;100499.59;103654;280;38641;-76
2023/07/17 10:34:05;;;;;;;2.70;2.50;;;;;;;36.15;30.24;100500.38;103655;280;38574;-75
2023/07/17 10:36:43;;;;;;;3.60;2.50;;;;;;;35.92;30.50;100502.48;103655;280;38284;-72
2023/07/17 10:39:19;;;;;;;4.20;2.50;;;;;;;35.68;31.50;100498.30;103666;280;40027;-73
2023/07/17 10:41:55;;;;;;;4.20;2.40;;;;;;;35.67;31.58;100499.52;103637;280;39539;-74
2023/07/17 10:44:30;;;;;;;3.50;2.60;;;;;;;35.71;31.47;100497.61;103646;280;39730;-72
2023/07/17 10:47:06;;;;;;;3.60;2.20;;;;;;;35.76;31.12;100488.35;103705;280;39407;-72
2023/07/17 10:49:40;;;;;;;3.60;2.30;;;;;;;35.67;31.41;100482.48;103623;280;38462;-74
2023/07/17 10:52:14;;;;;;;2.60;2.30;;;;;;;35.44;31.61;100482.77;103650;280;39642;-74
2023/07/17 10:54:48;;;;;;;3.40;2.30;;;;;;;35.33;31.89;100480.06;103648;280;39230;-73
2023/07/17 10:57:22;;;;;;;2.80;2.60;;;;;;;35.26;31.79;100474.90;103708;280;38521;-73
2023/07/17 10:59:59;;;;;;;3.90;2.60;;;;;;;35.09;32.15;100467.58;103652;280;38378;-74
2023/07/17 11:02:33;;;;;;;2.90;2.40;;;;;;;35.03;32.62;100459.88;103706;280;38834;-74
2023/07/17 11:05:08;;;;;;;4.30;2.50;;;;;;;34.98;32.59;100457.64;103690;279;39572;-75
2023/07/17 11:07:47;;;;;;;4.30;2.80;;;;;;;34.97;33.16;100452.88;103677;279;38306;-75
2023/07/17 11:10:26;;;;;;;2.60;2.20;;;;;;;35.10;33.33;100447.71;103685;280;38395;-75
2023/07/17 11:13:04;;;;;;;2.90;2.70;;;;;;;35.20;32.81;100449.08;103654;280;38265;-74
2023/07/17 11:15:43;;;;;;;2.80;2.60;;;;;;;35.22;32.40;100439.52;103556;280;38269;-74
2023/07/17 11:18:20;;;;;;;3.10;2.30;;;;;;;34.99;32.30;100436.23;103678;280;38251;-73
2023/07/17 11:20:53;;;;;;;2.60;2.30;;;;;;;34.80;33.12;100440.61;103570;281;40384;-74
2023/07/17 11:23:31;;;;;;;2.70;2.40;;;;;;;34.76;33.23;100445.56;103642;280;38256;-72
2023/07/17 11:26:05;;;;;;;3.40;2.50;;;;;;;34.72;33.26;100442.95;103676;280;39676;-74
2023/07/17 11:28:40;;;;;;;2.50;2.20;;;;;;;34.61;33.24;100436.96;103654;280;39701;-74
2023/07/17 11:31:25;;;;;;;3.00;2.70;;;;;;;34.41;32.95;100442.84;103683;280;39224;-74
2023/07/17 11:34:07;;;;;;;3.00;2.20;;;;;;;34.17;33.70;100435.15;103549;280;38964;-74
2023/07/17 11:36:45;;;;;;;2.50;2.30;;;;;;;34.16;33.98;100425.67;103670;280;38620;-73
2023/07/17 11:39:23;;;;;;;2.80;2.20;;;;;;;34.31;34.09;100421.04;103697;280;39499;-71
2023/07/17 11:42:00;;;;;;;3.20;2.40;;;;;;;34.49;33.91;100414.59;103733;280;38521;-73
2023/07/17 11:44:37;;;;;;;3.90;2.30;;;;;;;34.55;33.53;100413.45;103516;280;38219;-73
2023/07/17 11:47:14;;;;;;;2.80;2.30;;;;;;;34.41;33.20;100411.70;103630;280;38227;-73
2023/07/17 11:49:52;;;;;;;2.60;2.40;;;;;;;34.39;33.15;100407.36;103637;280;39389;-73
2023/07/17 11:52:26;;;;;;;3.30;2.20;;;;;;;34.52;33.79;100409.55;103660;280;38240;-73
2023/07/17 11:55:02;;;;;;;3.50;2.30;;;;;;;34.63;33.27;100412.67;103659;280;38591;-73
2023/07/17 11:57:36;;;;;;;2.50;2.20;;;;;;;34.61;32.86;100418.33;103664;280;38247;-73
2023/07/17 12:00:13;;;;;;;2.50;2.30;;;;;;;34.52;32.74;100421.45;103652;279;39418;-72
2023/07/17 12:02:53;;;;;;;2.30;2.10;;;;;;;34.37;32.79;100425.84;103662;280;38520;-74